Time;durP1;ratioP1;P1;durP2;ratioP2;P2;SDS_P1;SDS_P2;PMS_P1;PMS_P2;Temp;Humidity;BMP_temperature;BMP_pressure;BME280_temperature;BME280_humidity;BME280_pressure;Samples;Min_cycle;Max_cycle;Signal;HPM_P1;HPM_P2
2022/04/09 00:01:00;;;;;;;14.63;6.97;;;3.70;99.90;;;;;;5051821;28;20036;-46
2022/04/09 00:03:25;;;;;;;7.72;6.18;;;3.70;99.90;;;;;;5051615;28;20492;-45
2022/04/09 00:05:51;;;;;;;8.57;6.75;;;3.60;99.90;;;;;;5051665;28;20045;-45
2022/04/09 00:08:16;;;;;;;9.68;6.57;;;3.70;99.90;;;;;;5051572;28;20433;-48
2022/04/09 00:10:42;;;;;;;12.20;7.63;;;3.60;99.90;;;;;;5051815;28;20480;-45
2022/04/09 00:13:07;;;;;;;10.63;7.28;;;3.60;99.90;;;;;;5051522;28;20021;-45
2022/04/09 00:15:33;;;;;;;8.48;6.30;;;3.50;99.90;;;;;;5051735;28;20017;-47
2022/04/09 00:17:58;;;;;;;8.18;6.25;;;3.60;99.90;;;;;;5053532;28;20503;-45
2022/04/09 00:20:24;;;;;;;10.18;7.40;;;3.60;99.90;;;;;;5058562;28;20045;-45
2022/04/09 00:22:50;;;;;;;9.80;7.97;;;3.60;99.90;;;;;;5058110;28;20111;-46
2022/04/09 00:25:21;;;;;;;10.88;8.13;;;3.70;99.90;;;;;;5058022;28;20373;-45
2022/04/09 00:27:47;;;;;;;7.95;6.50;;;3.60;99.90;;;;;;5057786;28;20032;-45
2022/04/09 00:30:12;;;;;;;10.15;7.28;;;3.60;99.90;;;;;;5057053;28;20391;-42
2022/04/09 00:32:38;;;;;;;7.70;6.65;;;3.50;99.90;;;;;;5057877;28;20029;-47
2022/04/09 00:35:05;;;;;;;8.82;7.22;;;3.50;99.90;;;;;;5058382;28;20103;-46
2022/04/09 00:37:31;;;;;;;8.95;7.15;;;3.50;99.90;;;;;;5057714;28;20048;-47
2022/04/09 00:39:57;;;;;;;8.30;7.35;;;3.50;99.90;;;;;;5058210;28;20108;-45
2022/04/09 00:42:22;;;;;;;9.75;6.88;;;3.50;99.90;;;;;;5058038;28;20086;-47
2022/04/09 00:44:50;;;;;;;10.73;7.32;;;3.70;99.90;;;;;;5058210;28;20064;-49
2022/04/09 00:47:16;;;;;;;9.07;7.25;;;3.80;99.90;;;;;;5058087;28;20496;-49
2022/04/09 00:49:41;;;;;;;10.57;7.32;;;3.80;99.90;;;;;;5057895;28;20079;-45
2022/04/09 00:52:08;;;;;;;10.10;8.05;;;3.90;99.90;;;;;;5057947;28;20112;-45
2022/04/09 00:54:38;;;;;;;11.45;8.38;;;4.00;99.90;;;;;;5057788;28;20056;-47
2022/04/09 00:57:05;;;;;;;11.88;9.05;;;4.00;99.90;;;;;;5057361;28;20100;-47
2022/04/09 00:59:33;;;;;;;13.93;9.85;;;4.00;99.90;;;;;;5057992;28;20021;-48
2022/04/09 01:01:59;;;;;;;10.98;8.48;;;4.00;99.90;;;;;;5057725;28;20100;-48
2022/04/09 01:04:25;;;;;;;12.85;9.40;;;4.10;99.90;;;;;;5057790;28;20025;-45
2022/04/09 01:06:51;;;;;;;11.23;9.15;;;4.00;99.90;;;;;;5057538;28;20036;-44
2022/04/09 01:09:17;;;;;;;12.35;9.90;;;4.00;99.90;;;;;;5057857;28;20500;-50
2022/04/09 01:11:43;;;;;;;13.05;10.05;;;4.00;99.90;;;;;;5057458;28;20033;-48
2022/04/09 01:14:11;;;;;;;16.45;10.68;;;4.10;99.90;;;;;;5039694;28;20024;-47
2022/04/09 01:16:37;;;;;;;17.45;11.52;;;4.10;99.90;;;;;;5057567;28;20070;-42
2022/04/09 01:19:03;;;;;;;18.23;11.65;;;4.10;99.90;;;;;;5057377;28;20025;-47
2022/04/09 01:21:29;;;;;;;18.13;12.57;;;4.10;99.90;;;;;;5057378;28;20032;-47
2022/04/09 01:23:55;;;;;;;18.65;12.55;;;4.10;99.90;;;;;;5057042;28;20048;-45
2022/04/09 01:26:21;;;;;;;20.48;13.70;;;4.10;99.90;;;;;;5057296;28;20083;-47
2022/04/09 01:28:47;;;;;;;23.52;14.07;;;4.10;99.90;;;;;;5057019;28;20025;-41
2022/04/09 01:31:13;;;;;;;19.88;14.15;;;4.10;99.90;;;;;;5053092;28;20027;-49
2022/04/09 01:33:39;;;;;;;25.45;15.43;;;4.00;99.90;;;;;;5053940;28;20021;-49
2022/04/09 01:36:05;;;;;;;22.25;16.00;;;4.00;99.90;;;;;;5036149;28;20121;-43
2022/04/09 01:38:31;;;;;;;21.58;15.85;;;4.00;99.90;;;;;;5053975;28;20029;-41
2022/04/09 01:40:56;;;;;;;25.00;16.70;;;4.00;99.90;;;;;;5054261;28;20484;-49
2022/04/09 01:43:22;;;;;;;25.73;17.15;;;3.90;99.90;;;;;;5053706;28;20520;-47
2022/04/09 01:45:48;;;;;;;25.92;17.48;;;3.90;99.90;;;;;;5054099;28;20481;-45
2022/04/09 01:48:14;;;;;;;24.05;15.35;;;3.90;99.90;;;;;;5035776;28;20027;-42
2022/04/09 01:50:40;;;;;;;30.10;18.25;;;3.90;99.90;;;;;;5053966;28;20189;-46
2022/04/09 01:53:06;;;;;;;23.23;15.95;;;3.90;99.90;;;;;;5053450;28;20049;-47
2022/04/09 01:55:32;;;;;;;22.67;15.40;;;3.90;99.90;;;;;;5053891;28;20041;-52
2022/04/09 01:57:58;;;;;;;20.75;15.57;;;4.00;99.90;;;;;;5053537;28;20017;-47
2022/04/09 02:00:24;;;;;;;32.40;15.98;;;4.10;99.90;;;;;;5054009;28;20024;-46
2022/04/09 02:02:50;;;;;;;19.98;14.27;;;4.20;99.90;;;;;;5054065;28;20017;-47
2022/04/09 02:05:16;;;;;;;25.30;17.30;;;4.20;99.90;;;;;;5053391;28;20108;-49
2022/04/09 02:07:43;;;;;;;30.02;18.45;;;4.10;99.90;;;;;;5053072;28;20124;-52
2022/04/09 02:10:10;;;;;;;24.35;15.43;;;4.10;99.90;;;;;;5053701;28;20108;-43
2022/04/09 02:12:36;;;;;;;29.67;17.33;;;4.10;99.90;;;;;;5051991;28;20035;-48
2022/04/09 02:15:07;;;;;;;25.65;16.58;;;4.20;99.90;;;;;;5053476;28;20067;-48
2022/04/09 02:17:35;;;;;;;22.80;17.60;;;4.20;99.90;;;;;;5053116;28;20024;-49
2022/04/09 02:20:00;;;;;;;24.70;16.92;;;4.20;99.90;;;;;;5053194;28;20036;-48
2022/04/09 02:22:26;;;;;;;28.27;17.02;;;4.20;99.90;;;;;;5052938;28;20132;-46
2022/04/09 02:24:52;;;;;;;25.35;16.75;;;4.20;99.90;;;;;;5052836;28;20446;-49
2022/04/09 02:27:18;;;;;;;22.15;16.00;;;4.20;99.90;;;;;;5052734;28;20455;-49
2022/04/09 02:29:46;;;;;;;27.50;17.38;;;4.30;99.90;;;;;;5052997;28;20058;-45
2022/04/09 02:32:11;;;;;;;20.35;16.35;;;4.30;99.90;;;;;;5052847;28;20492;-49
2022/04/09 02:34:37;;;;;;;21.58;15.10;;;4.30;99.90;;;;;;5052872;28;20013;-48
2022/04/09 02:37:05;;;;;;;23.48;15.55;;;4.30;99.90;;;;;;5051343;28;20040;-41
2022/04/09 02:39:30;;;;;;;25.05;15.45;;;4.30;99.90;;;;;;5052846;28;20024;-41
2022/04/09 02:41:56;;;;;;;22.77;16.65;;;4.30;99.90;;;;;;5052246;28;20477;-46
2022/04/09 02:44:23;;;;;;;22.80;14.73;;;4.30;99.90;;;;;;5052651;28;20100;-46
2022/04/09 02:46:48;;;;;;;23.33;15.43;;;4.40;99.90;;;;;;5052590;28;20110;-47
2022/04/09 02:49:14;;;;;;;21.67;14.23;;;4.40;99.90;;;;;;5052592;28;20064;-44
2022/04/09 02:51:40;;;;;;;19.50;12.43;;;4.30;99.90;;;;;;5052398;28;20024;-48
2022/04/09 02:54:05;;;;;;;18.48;13.23;;;4.40;99.90;;;;;;5052292;28;20564;-48
2022/04/09 02:56:31;;;;;;;24.10;11.82;;;4.40;99.90;;;;;;5034498;28;20030;-48
2022/04/09 02:58:56;;;;;;;14.63;10.90;;;4.40;99.90;;;;;;5052217;28;20488;-46
2022/04/09 03:01:24;;;;;;;18.80;11.52;;;4.40;99.90;;;;;;5052539;28;20107;-47
2022/04/09 03:03:50;;;;;;;17.50;9.98;;;4.40;99.90;;;;;;5052175;28;20117;-49
2022/04/09 03:06:16;;;;;;;18.13;9.65;;;4.40;99.90;;;;;;5034389;28;20115;-49
2022/04/09 03:08:41;;;;;;;17.50;10.88;;;4.40;99.90;;;;;;5051903;28;20530;-46
2022/04/09 03:11:08;;;;;;;18.42;10.35;;;4.50;99.90;;;;;;5052391;28;20017;-45
2022/04/09 03:13:33;;;;;;;17.83;10.60;;;4.30;99.90;;;;;;5051957;28;20029;-50
2022/04/09 03:15:59;;;;;;;16.50;11.00;;;4.40;99.90;;;;;;5052156;28;20031;-50
2022/04/09 03:18:24;;;;;;;19.80;11.02;;;4.40;99.90;;;;;;5051947;28;20021;-46
2022/04/09 03:20:50;;;;;;;16.83;11.18;;;4.30;99.90;;;;;;5052058;28;20021;-43
2022/04/09 03:23:15;;;;;;;18.63;12.13;;;4.30;99.90;;;;;;5033848;28;20481;-50
2022/04/09 03:25:41;;;;;;;21.02;10.75;;;4.20;99.90;;;;;;5051644;28;20131;-45
2022/04/09 03:28:06;;;;;;;21.02;10.43;;;4.20;99.90;;;;;;5051577;28;20033;-49
2022/04/09 03:30:32;;;;;;;15.57;10.93;;;4.10;99.90;;;;;;5051904;28;20064;-48
2022/04/09 03:32:58;;;;;;;20.35;11.52;;;4.10;99.90;;;;;;5051660;28;20498;-50
2022/04/09 03:35:24;;;;;;;14.75;11.30;;;4.10;99.90;;;;;;5033827;28;20028;-45
2022/04/09 03:37:49;;;;;;;15.88;10.85;;;4.00;99.90;;;;;;5050209;28;20488;-48
2022/04/09 03:40:15;;;;;;;18.08;10.43;;;4.00;99.90;;;;;;5051685;28;20096;-51
2022/04/09 03:42:41;;;;;;;17.70;9.70;;;4.00;99.90;;;;;;5051229;28;20071;-47
2022/04/09 03:45:07;;;;;;;22.55;9.05;;;4.10;99.90;;;;;;5050779;28;20056;-46
2022/04/09 03:47:33;;;;;;;19.23;9.35;;;4.10;99.90;;;;;;5050608;28;20025;-43
2022/04/09 03:50:01;;;;;;;11.00;7.85;;;4.10;99.90;;;;;;5050697;28;20377;-48
2022/04/09 03:52:26;;;;;;;11.98;8.20;;;4.10;99.90;;;;;;5049972;28;20033;-47
2022/04/09 03:54:52;;;;;;;13.80;8.25;;;4.20;99.90;;;;;;5050429;28;20021;-43
2022/04/09 03:57:17;;;;;;;13.57;9.18;;;4.20;99.90;;;;;;5050536;28;20103;-45
2022/04/09 03:59:43;;;;;;;22.23;9.23;;;4.30;99.90;;;;;;5049301;28;20028;-49
2022/04/09 04:02:09;;;;;;;17.50;8.77;;;4.20;99.90;;;;;;5050675;28;20025;-48
2022/04/09 04:04:35;;;;;;;18.02;9.13;;;4.10;99.90;;;;;;5050838;28;20024;-47
2022/04/09 04:07:00;;;;;;;14.75;10.70;;;4.10;99.90;;;;;;5050531;28;20021;-47
2022/04/09 04:09:26;;;;;;;16.15;10.82;;;3.90;99.90;;;;;;5051216;28;20418;-47
2022/04/09 04:11:51;;;;;;;19.98;13.02;;;3.80;99.90;;;;;;5050828;28;20127;-48
2022/04/09 04:14:17;;;;;;;16.25;11.85;;;3.70;99.90;;;;;;5050553;28;20399;-47
2022/04/09 04:16:42;;;;;;;19.25;11.57;;;3.60;99.90;;;;;;5050488;28;20021;-41
2022/04/09 04:19:09;;;;;;;13.45;9.90;;;3.50;99.90;;;;;;5050260;28;20025;-50
2022/04/09 04:21:34;;;;;;;15.45;10.02;;;3.40;99.90;;;;;;5050587;28;20017;-47
2022/04/09 04:24:00;;;;;;;19.35;10.98;;;3.40;99.90;;;;;;5050190;28;20036;-45
2022/04/09 04:26:26;;;;;;;15.82;9.90;;;3.40;99.90;;;;;;5050761;28;20029;-45
2022/04/09 04:28:52;;;;;;;19.13;9.93;;;3.50;99.90;;;;;;5050296;28;20508;-40
2022/04/09 04:31:20;;;;;;;18.00;9.98;;;3.50;99.90;;;;;;5051897;28;20047;-45
2022/04/09 04:33:45;;;;;;;15.52;8.20;;;3.50;99.90;;;;;;5051145;28;20159;-43
2022/04/09 04:36:11;;;;;;;16.42;8.95;;;3.50;99.90;;;;;;5049553;28;20124;-47
2022/04/09 04:38:37;;;;;;;15.88;8.55;;;3.60;99.90;;;;;;5049934;28;20021;-48
2022/04/09 04:41:04;;;;;;;20.00;8.85;;;3.60;99.90;;;;;;5050214;28;20028;-45
2022/04/09 04:43:30;;;;;;;10.70;7.88;;;3.70;99.90;;;;;;5029457;23;1009827;-46
2022/04/09 04:45:56;;;;;;;14.32;7.80;;;3.70;99.90;;;;;;5013536;28;20064;-46
2022/04/09 04:48:22;;;;;;;12.07;7.47;;;3.70;99.90;;;;;;5012736;28;20481;-49
2022/04/09 04:50:47;;;;;;;9.85;7.43;;;3.70;99.90;;;;;;5013350;28;20061;-47
2022/04/09 04:53:13;;;;;;;13.52;7.38;;;3.70;99.90;;;;;;5027044;28;20061;-47
2022/04/09 04:55:38;;;;;;;14.02;7.85;;;3.80;99.90;;;;;;5011259;28;20104;-47
2022/04/09 04:58:04;;;;;;;15.57;8.80;;;3.70;99.90;;;;;;5011423;28;20474;-53
2022/04/09 05:00:30;;;;;;;12.38;6.90;;;3.60;99.90;;;;;;4993839;28;20033;-48
2022/04/09 05:02:56;;;;;;;8.95;7.10;;;3.60;99.90;;;;;;5011140;28;20026;-50
2022/04/09 05:05:21;;;;;;;10.25;6.25;;;3.60;99.90;;;;;;5013855;28;20071;-47
2022/04/09 05:07:49;;;;;;;15.30;7.07;;;3.60;99.90;;;;;;5014699;28;20084;-46
2022/04/09 05:10:18;;;;;;;17.02;8.75;;;3.60;99.90;;;;;;5014770;28;20429;-50
2022/04/09 05:12:44;;;;;;;12.02;7.10;;;3.60;99.90;;;;;;5014731;28;20026;-52
2022/04/09 05:15:11;;;;;;;22.40;7.53;;;3.70;99.90;;;;;;5013343;28;20037;-48
2022/04/09 05:17:38;;;;;;;13.48;7.78;;;3.70;99.90;;;;;;5014608;28;20018;-49
2022/04/09 05:20:05;;;;;;;14.52;6.15;;;3.70;99.90;;;;;;5013420;28;20029;-51
2022/04/09 05:22:31;;;;;;;12.48;6.28;;;3.80;99.90;;;;;;5014871;28;20030;-52
2022/04/09 05:24:57;;;;;;;15.05;6.18;;;3.80;99.90;;;;;;5014052;28;20030;-50
2022/04/09 05:27:23;;;;;;;15.70;7.30;;;3.80;99.90;;;;;;5014487;28;20558;-67
2022/04/09 05:29:49;;;;;;;11.35;6.18;;;4.00;99.90;;;;;;5014035;28;20112;-50
2022/04/09 05:32:14;;;;;;;17.20;6.45;;;3.90;99.90;;;;;;5017140;28;20573;-57
2022/04/09 05:34:40;;;;;;;22.50;6.90;;;3.90;99.90;;;;;;5013552;28;20029;-48
2022/04/09 05:37:05;;;;;;;9.80;6.18;;;3.90;99.90;;;;;;4996450;28;20036;-50
2022/04/09 05:39:31;;;;;;;13.35;6.95;;;3.90;99.90;;;;;;5014310;28;20378;-52
2022/04/09 05:41:56;;;;;;;13.38;6.35;;;3.80;99.90;;;;;;5013774;28;20083;-49
2022/04/09 05:44:22;;;;;;;18.25;6.72;;;3.80;99.90;;;;;;5013644;28;20038;-54
2022/04/09 05:46:48;;;;;;;16.25;5.72;;;3.80;99.90;;;;;;5014059;28;20101;-50
2022/04/09 05:49:13;;;;;;;8.45;5.90;;;3.90;99.90;;;;;;5014031;28;20040;-49
2022/04/09 05:51:39;;;;;;;11.02;5.15;;;4.00;99.90;;;;;;5014011;28;20032;-49
2022/04/09 05:54:05;;;;;;;7.63;4.88;;;4.40;99.90;;;;;;5013643;28;20030;-52
2022/04/09 05:56:30;;;;;;;10.48;4.63;;;4.80;99.90;;;;;;5014282;28;20029;-51
2022/04/09 05:58:56;;;;;;;10.32;5.53;;;5.20;99.90;;;;;;5013882;28;20057;-50
2022/04/09 06:01:22;;;;;;;11.52;4.05;;;5.60;99.90;;;;;;5014116;28;20105;-50
2022/04/09 06:03:47;;;;;;;6.55;4.15;;;6.00;99.90;;;;;;5013881;28;20053;-49
2022/04/09 06:06:13;;;;;;;5.45;3.72;;;6.20;99.90;;;;;;4996754;28;20026;-49
2022/04/09 06:08:38;;;;;;;11.15;4.32;;;6.20;99.90;;;;;;5012535;28;20064;-50
2022/04/09 06:11:05;;;;;;;8.18;4.68;;;6.10;99.90;;;;;;5013916;28;20515;-47
2022/04/09 06:13:31;;;;;;;7.05;3.58;;;6.20;99.90;;;;;;5012472;28;20026;-48
2022/04/09 06:15:56;;;;;;;5.90;5.05;;;6.20;99.90;;;;;;5013070;28;20033;-50
2022/04/09 06:18:22;;;;;;;12.38;3.75;;;6.40;99.90;;;;;;5013317;28;20109;-50
2022/04/09 06:20:47;;;;;;;5.88;3.38;;;6.80;99.90;;;;;;5013685;28;20093;-50
2022/04/09 06:23:13;;;;;;;4.68;3.53;;;7.20;99.90;;;;;;5013523;28;20104;-49
2022/04/09 06:25:38;;;;;;;5.80;3.25;;;7.30;99.90;;;;;;5013323;28;20085;-54
2022/04/09 06:28:04;;;;;;;8.55;2.97;;;7.50;99.90;;;;;;5013148;28;20057;-49
2022/04/09 06:30:30;;;;;;;9.23;3.40;;;7.50;99.90;;;;;;5013313;28;20113;-50
2022/04/09 06:32:55;;;;;;;7.32;3.50;;;7.30;99.90;;;;;;5013087;28;20311;-48
2022/04/09 06:35:22;;;;;;;9.40;2.88;;;7.00;99.90;;;;;;5013437;28;20026;-47
2022/04/09 06:37:47;;;;;;;10.07;3.50;;;6.90;99.90;;;;;;5013076;28;20493;-49
2022/04/09 06:40:14;;;;;;;10.00;3.80;;;6.70;99.90;;;;;;5013291;28;20083;-53
2022/04/09 06:42:40;;;;;;;11.52;4.03;;;6.50;99.90;;;;;;5013269;28;20401;-52
2022/04/09 06:45:10;;;;;;;10.57;3.85;;;6.50;99.90;;;;;;5013008;28;20037;-50
2022/04/09 06:47:39;;;;;;;8.65;3.40;;;6.40;99.90;;;;;;5012843;28;20061;-49
2022/04/09 06:50:09;;;;;;;14.48;3.78;;;6.30;99.90;;;;;;5013293;28;20033;-50
2022/04/09 06:52:35;;;;;;;11.27;3.45;;;6.10;99.90;;;;;;4995466;28;20026;-49
2022/04/09 06:55:02;;;;;;;8.70;3.95;;;6.30;99.90;;;;;;5012674;28;20022;-53
2022/04/09 06:57:28;;;;;;;14.10;3.05;;;7.00;99.90;;;;;;5012378;28;20033;-54
2022/04/09 06:59:58;;;;;;;12.60;3.45;;;7.80;99.90;;;;;;5012929;28;20516;-50
2022/04/09 07:02:24;;;;;;;12.90;4.07;;;8.00;99.90;;;;;;5013123;28;20030;-54
2022/04/09 07:04:50;;;;;;;7.10;3.10;;;7.90;99.90;;;;;;5011299;28;20520;-53
2022/04/09 07:07:23;;;;;;;8.35;3.08;;;7.60;99.90;;;;;;5012335;28;20026;-51
2022/04/09 07:09:49;;;;;;;8.65;3.03;;;7.30;99.90;;;;;;5013069;28;20030;-47
2022/04/09 07:12:15;;;;;;;8.45;2.67;;;6.90;99.90;;;;;;5011701;28;20037;-52
2022/04/09 07:14:40;;;;;;;11.10;3.50;;;6.60;99.90;;;;;;4995251;28;20025;-49
2022/04/09 07:17:06;;;;;;;12.75;3.83;;;6.40;99.90;;;;;;5012323;28;20030;-50
2022/04/09 07:19:32;;;;;;;11.32;3.90;;;6.30;99.90;;;;;;5012856;28;20048;-48
2022/04/09 07:21:58;;;;;;;8.70;2.88;;;6.30;99.90;;;;;;5012802;28;20397;-50
2022/04/09 07:24:24;;;;;;;10.52;3.55;;;6.30;99.90;;;;;;4994783;28;20036;-51
2022/04/09 07:26:49;;;;;;;12.52;4.30;;;6.30;99.90;;;;;;5012333;28;20507;-52
2022/04/09 07:29:15;;;;;;;13.32;4.05;;;6.40;99.90;;;;;;5011866;28;20033;-50
2022/04/09 07:31:41;;;;;;;13.32;3.35;;;6.60;99.90;;;;;;5013453;28;20025;-52
2022/04/09 07:34:06;;;;;;;12.85;4.30;;;6.90;99.90;;;;;;5012547;28;20033;-54
2022/04/09 07:36:32;;;;;;;17.38;3.67;;;7.00;99.90;;;;;;5011719;28;20025;-49
2022/04/09 07:38:57;;;;;;;16.88;4.32;;;7.10;99.90;;;;;;5011676;28;20033;-48
2022/04/09 07:41:23;;;;;;;10.65;4.10;;;7.40;99.90;;;;;;5011978;28;20022;-46
2022/04/09 07:43:48;;;;;;;7.85;3.55;;;7.60;99.90;;;;;;5012057;28;20505;-44
2022/04/09 07:46:14;;;;;;;8.70;2.97;;;7.90;99.90;;;;;;5025838;28;20033;-44
2022/04/09 07:48:39;;;;;;;7.85;3.35;;;8.00;99.90;;;;;;5019491;28;20026;-50
2022/04/09 07:51:06;;;;;;;13.57;3.55;;;8.00;99.90;;;;;;5010427;28;20026;-46
2022/04/09 07:53:31;;;;;;;14.20;3.35;;;8.00;99.90;;;;;;5011612;28;20084;-46
2022/04/09 07:55:57;;;;;;;12.52;3.65;;;8.30;99.90;;;;;;5011940;28;20034;-47
2022/04/09 07:58:23;;;;;;;16.15;6.70;;;8.70;99.90;;;;;;5011280;28;20537;-46
2022/04/09 08:00:49;;;;;;;14.23;4.50;;;8.50;99.90;;;;;;5011909;28;20036;-46
2022/04/09 08:03:15;;;;;;;11.40;4.05;;;8.40;99.90;;;;;;5012440;28;20030;-46
2022/04/09 08:05:41;;;;;;;14.18;4.88;;;8.20;99.90;;;;;;5011539;28;20397;-45
2022/04/09 08:08:08;;;;;;;12.00;3.95;;;8.10;99.90;;;;;;5010916;28;20104;-44
2022/04/09 08:10:33;;;;;;;9.05;3.15;;;8.30;99.90;;;;;;5011449;28;20026;-46
2022/04/09 08:12:59;;;;;;;10.70;3.20;;;8.30;99.90;;;;;;5011877;28;20034;-46
2022/04/09 08:15:25;;;;;;;11.57;3.90;;;8.20;99.90;;;;;;5011619;28;20030;-45
2022/04/09 08:17:54;;;;;;;16.73;4.22;;;8.00;99.90;;;;;;5011760;28;20018;-49
2022/04/09 08:20:20;;;;;;;8.20;3.38;;;7.80;99.90;;;;;;5011457;28;20026;-47
2022/04/09 08:22:46;;;;;;;12.30;4.15;;;7.60;99.90;;;;;;5011504;28;20104;-46
2022/04/09 08:25:12;;;;;;;12.15;3.67;;;7.50;99.90;;;;;;5011297;28;20366;-47
2022/04/09 08:27:38;;;;;;;38.67;17.20;;;7.40;99.90;;;;;;5011622;28;20032;-47
2022/04/09 08:30:06;;;;;;;17.00;6.60;;;7.40;99.90;;;;;;5011122;28;20109;-47
2022/04/09 08:32:32;;;;;;;18.15;7.38;;;7.30;99.90;;;;;;5010318;28;20018;-49
2022/04/09 08:34:58;;;;;;;17.45;3.70;;;7.30;99.90;;;;;;5011162;28;20021;-50
2022/04/09 08:37:24;;;;;;;6.88;3.35;;;7.30;99.90;;;;;;5010980;28;20084;-49
2022/04/09 08:39:54;;;;;;;12.82;4.07;;;7.50;99.90;;;;;;5010790;28;20493;-46
2022/04/09 08:42:21;;;;;;;11.57;3.45;;;7.80;99.90;;;;;;5013362;28;20064;-47
2022/04/09 08:44:50;;;;;;;9.70;3.85;;;8.10;99.90;;;;;;5011123;28;20040;-49
2022/04/09 08:47:16;;;;;;;7.90;3.63;;;8.20;99.90;;;;;;4992560;28;20494;-46
2022/04/09 08:49:45;;;;;;;10.32;3.80;;;8.20;99.90;;;;;;4995766;28;20109;-49
2022/04/09 08:52:12;;;;;;;9.77;3.22;;;8.30;99.90;;;;;;5007403;28;20030;-44
2022/04/09 08:54:38;;;;;;;10.77;3.50;;;8.30;99.90;;;;;;5015404;28;20049;-46
2022/04/09 08:57:05;;;;;;;15.32;3.42;;;8.20;99.90;;;;;;5014536;28;20028;-46
2022/04/09 08:59:31;;;;;;;18.00;5.00;;;8.30;99.90;;;;;;5011453;28;20029;-46
2022/04/09 09:01:57;;;;;;;12.07;4.13;;;8.20;99.90;;;;;;5014929;28;20050;-48
2022/04/09 09:04:22;;;;;;;9.30;3.42;;;8.10;99.90;;;;;;4997723;28;20120;-48
2022/04/09 09:06:48;;;;;;;7.55;3.17;;;8.10;99.90;;;;;;5015621;28;20033;-46
2022/04/09 09:09:31;;;;;;;13.35;3.38;;;8.00;99.90;;;;;;5015770;28;20057;-45
2022/04/09 09:11:57;;;;;;;13.93;3.80;;;8.00;99.90;;;;;;5015577;28;20030;-46
2022/04/09 09:14:32;;;;;;;12.48;3.05;;;8.00;99.90;;;;;;4996956;28;20022;-48
2022/04/09 09:17:01;;;;;;;20.10;4.07;;;8.10;99.90;;;;;;5014829;28;20523;-50
2022/04/09 09:19:39;;;;;;;9.50;2.70;;;8.90;99.90;;;;;;5015028;28;20113;-49
2022/04/09 09:22:06;;;;;;;6.50;2.28;;;10.00;99.90;;;;;;5014566;28;20038;-47
2022/04/09 09:24:31;;;;;;;8.38;2.22;;;10.90;99.50;;;;;;5013401;28;20025;-51
2022/04/09 09:27:01;;;;;;;9.68;1.95;;;11.70;98.60;;;;;;5015806;28;20040;-46
2022/04/09 09:29:28;;;;;;;9.93;2.05;;;11.70;97.50;;;;;;5015752;28;20481;-50
2022/04/09 09:31:55;;;;;;;8.88;2.75;;;11.20;96.40;;;;;;5011093;28;20100;-55
2022/04/09 09:34:21;;;;;;;11.65;3.10;;;10.90;97.60;;;;;;5014276;28;20026;-55
2022/04/09 09:36:48;;;;;;;11.45;2.45;;;10.90;97.70;;;;;;5013358;28;20025;-50
2022/04/09 09:39:20;;;;;;;11.73;3.13;;;10.70;98.20;;;;;;5013317;28;20072;-45
2022/04/09 09:41:54;;;;;;;10.85;2.55;;;11.00;98.10;;;;;;5012994;28;20049;-47
2022/04/09 09:44:25;;;;;;;4.18;1.98;;;11.20;96.30;;;;;;5013089;28;20026;-47
2022/04/09 09:46:53;;;;;;;6.25;2.38;;;11.20;95.70;;;;;;5013082;28;20022;-50
2022/04/09 09:49:20;;;;;;;9.77;2.22;;;11.10;96.00;;;;;;5013272;28;20014;-45
2022/04/09 09:52:03;;;;;;;6.53;1.85;;;11.30;95.50;;;;;;5012205;28;20124;-55
2022/04/09 09:54:29;;;;;;;9.23;2.45;;;11.70;94.30;;;;;;5013419;28;20050;-56
2022/04/09 09:56:55;;;;;;;6.47;1.98;;;11.50;94.40;;;;;;5012743;28;20057;-54
2022/04/09 09:59:22;;;;;;;4.60;1.70;;;10.90;93.40;;;;;;5012374;28;20180;-50
2022/04/09 10:01:48;;;;;;;7.65;1.90;;;10.80;93.40;;;;;;5013058;28;20084;-54
2022/04/09 10:04:13;;;;;;;4.57;1.70;;;10.90;92.90;;;;;;5013051;28;20545;-51
2022/04/09 10:06:43;;;;;;;5.47;2.17;;;11.10;93.10;;;;;;5015960;28;20037;-54
2022/04/09 10:09:09;;;;;;;2.95;1.27;;;11.30;93.70;;;;;;5011402;28;20501;-46
2022/04/09 10:11:36;;;;;;;4.35;1.45;;;11.20;91.50;;;;;;5013954;28;20398;-48
2022/04/09 10:14:07;;;;;;;9.00;1.98;;;11.10;91.50;;;;;;5012969;28;20233;-47
2022/04/09 10:16:35;;;;;;;6.20;1.60;;;11.00;92.70;;;;;;5012862;28;20084;-57
2022/04/09 10:19:02;;;;;;;5.53;1.95;;;11.30;92.90;;;;;;5021661;28;20104;-46
2022/04/09 10:21:29;;;;;;;3.35;1.45;;;11.50;92.20;;;;;;5025559;28;20456;-49
2022/04/09 10:23:57;;;;;;;22.65;11.65;;;11.50;91.40;;;;;;5016829;28;20091;-48
2022/04/09 10:26:23;;;;;;;21.75;10.82;;;11.50;91.10;;;;;;5012955;28;20022;-48
2022/04/09 10:28:51;;;;;;;7.70;2.08;;;11.60;90.70;;;;;;5012259;28;20185;-50
2022/04/09 10:31:22;;;;;;;7.20;1.92;;;11.70;91.20;;;;;;5012836;28;20022;-55
2022/04/09 10:33:55;;;;;;;8.02;1.70;;;11.80;91.30;;;;;;4995152;28;20137;-58
2022/04/09 10:36:40;;;;;;;4.55;1.85;;;11.80;91.00;;;;;;5012299;28;20030;-53
2022/04/09 10:39:25;;;;;;;7.32;1.60;;;11.80;90.60;;;;;;4994262;28;20018;-55
2022/04/09 10:41:54;;;;;;;4.10;1.67;;;11.60;90.60;;;;;;4990305;28;20033;-56
2022/04/09 10:44:48;;;;;;;7.55;2.35;;;11.60;90.50;;;;;;5012113;28;20036;-48
2022/04/09 10:47:15;;;;;;;5.32;1.33;;;11.40;90.90;;;;;;5011947;28;20076;-53
2022/04/09 10:49:42;;;;;;;4.72;2.05;;;11.20;91.10;;;;;;5010691;28;20026;-51
2022/04/09 10:52:16;;;;;;;8.70;1.50;;;11.30;92.30;;;;;;5012018;28;20509;-48
2022/04/09 10:55:08;;;;;;;6.43;1.95;;;11.20;91.10;;;;;;5012103;28;20048;-51
2022/04/09 10:57:44;;;;;;;4.68;1.65;;;11.30;91.30;;;;;;5000883;28;20029;-50
2022/04/09 11:00:22;;;;;;;8.95;1.77;;;11.40;90.50;;;;;;5010710;28;20018;-50
2022/04/09 11:03:04;;;;;;;8.02;2.00;;;11.50;91.10;;;;;;5011607;28;20029;-56
2022/04/09 11:05:30;;;;;;;7.70;2.03;;;11.70;90.30;;;;;;5011868;28;20029;-52
2022/04/09 11:08:08;;;;;;;5.35;1.58;;;11.50;90.20;;;;;;5011018;28;20042;-48
2022/04/09 11:10:34;;;;;;;6.22;2.03;;;11.40;91.50;;;;;;5011684;28;20040;-50
2022/04/09 11:13:00;;;;;;;7.03;2.03;;;11.50;91.30;;;;;;4994217;28;20026;-48
2022/04/09 11:15:29;;;;;;;4.03;2.00;;;11.50;90.50;;;;;;5011767;28;20516;-49
2022/04/09 11:18:01;;;;;;;5.22;1.95;;;11.60;90.80;;;;;;5011565;28;20125;-48
2022/04/09 11:20:34;;;;;;;4.50;1.00;;;11.50;92.50;;;;;;5010325;28;20101;-50
2022/04/09 11:23:14;;;;;;;3.95;1.10;;;10.90;93.60;;;;;;5011700;28;20042;-51
2022/04/09 11:25:42;;;;;;;1.40;0.85;;;10.70;95.20;;;;;;5012331;28;20060;-47
2022/04/09 11:28:17;;;;;;;2.95;0.90;;;10.10;95.20;;;;;;5011339;28;20108;-47
2022/04/09 11:31:02;;;;;;;3.58;1.20;;;9.90;96.60;;;;;;5011527;28;20619;-51
2022/04/09 11:33:28;;;;;;;1.30;0.70;;;9.50;96.10;;;;;;5011301;28;20033;-50
2022/04/09 11:35:55;;;;;;;1.52;0.98;;;9.00;97.50;;;;;;5006333;28;20049;-46
2022/04/09 11:38:27;;;;;;;0.88;0.77;;;8.90;98.60;;;;;;5010586;28;20112;-48
2022/04/09 11:40:54;;;;;;;2.00;0.73;;;8.80;99.30;;;;;;5009930;28;20022;-48
2022/04/09 11:43:20;;;;;;;2.92;0.98;;;8.60;99.70;;;;;;5005165;28;20072;-46
2022/04/09 11:45:46;;;;;;;2.35;1.63;;;8.50;99.90;;;;;;5000300;28;20451;-46
2022/04/09 11:48:16;;;;;;;1.10;1.10;;;8.60;99.90;;;;;;4999010;28;20061;-50
2022/04/09 11:50:43;;;;;;;1.33;0.70;;;8.50;99.90;;;;;;5001567;28;20018;-49
2022/04/09 11:53:13;;;;;;;1.60;0.80;;;8.50;99.90;;;;;;5009306;28;20034;-50
2022/04/09 11:55:40;;;;;;;2.88;1.00;;;8.40;99.90;;;;;;4998491;28;20630;-48
2022/04/09 11:58:07;;;;;;;1.05;0.80;;;8.30;99.90;;;;;;5005715;28;20022;-45
2022/04/09 12:00:36;;;;;;;1.42;0.70;;;8.20;99.90;;;;;;5010125;28;20022;-49
2022/04/09 12:03:02;;;;;;;2.22;0.90;;;8.30;99.90;;;;;;5011118;28;20034;-45
2022/04/09 12:05:37;;;;;;;2.75;0.90;;;8.20;99.90;;;;;;5011896;28;20065;-51
2022/04/09 12:08:04;;;;;;;2.03;0.80;;;8.20;99.90;;;;;;5011112;28;20044;-45
2022/04/09 12:10:30;;;;;;;2.58;1.40;;;8.40;99.90;;;;;;4992165;28;20033;-47
2022/04/09 12:12:57;;;;;;;2.65;0.85;;;8.40;99.90;;;;;;5001328;28;20034;-47
2022/04/09 12:15:34;;;;;;;6.15;1.42;;;8.50;99.90;;;;;;5000669;28;20022;-48
2022/04/09 12:18:04;;;;;;;4.38;1.10;;;8.60;99.90;;;;;;5004078;28;20056;-48
2022/04/09 12:20:35;;;;;;;5.05;0.82;;;8.70;99.90;;;;;;5000125;28;20054;-50
2022/04/09 12:23:01;;;;;;;2.97;0.95;;;8.70;99.90;;;;;;5009142;28;20548;-54
2022/04/09 12:25:34;;;;;;;1.85;1.50;;;8.60;99.90;;;;;;5010980;28;20029;-54
2022/04/09 12:28:00;;;;;;;2.35;1.33;;;8.60;99.90;;;;;;5010939;28;20030;-53
2022/04/09 12:30:42;;;;;;;4.22;1.40;;;8.70;99.90;;;;;;5011471;28;20030;-53
2022/04/09 12:33:10;;;;;;;3.15;1.40;;;8.80;99.90;;;;;;5011053;28;20030;-51
2022/04/09 12:35:36;;;;;;;3.53;1.10;;;9.00;99.90;;;;;;5011517;28;20033;-53
2022/04/09 12:38:01;;;;;;;5.20;1.20;;;9.10;99.90;;;;;;5011375;28;20022;-53
2022/04/09 12:40:29;;;;;;;5.65;1.42;;;9.20;99.90;;;;;;5011540;28;20030;-52
2022/04/09 12:42:55;;;;;;;2.28;1.23;;;9.30;99.90;;;;;;5011230;28;20041;-51
2022/04/09 12:45:23;;;;;;;4.78;1.30;;;9.30;99.90;;;;;;4974561;28;20490;-49
2022/04/09 12:48:00;;;;;;;2.30;1.17;;;9.40;99.90;;;;;;4991405;28;20430;-49